createdAt,value
2023-03-20T00:01:12.756Z,21.27
2023-03-20T00:03:43.347Z,20.70
2023-03-20T00:06:19.272Z,21.63
2023-03-20T00:09:08.705Z,20.27
2023-03-20T00:11:46.635Z,20.93
2023-03-20T00:14:19.094Z,21.07
2023-03-20T00:19:54.451Z,19.97
2023-03-20T00:22:26.108Z,21.40
2023-03-20T00:25:14.142Z,22.53
2023-03-20T00:27:45.129Z,22.60
2023-03-20T00:30:24.924Z,24.13
2023-03-20T00:32:56.245Z,22.87
2023-03-20T00:35:28.562Z,23.43
2023-03-20T00:38:01.431Z,24.77
2023-03-20T00:40:33.741Z,25.47
2023-03-20T00:43:05.458Z,26.37
2023-03-20T00:45:37.894Z,26.10
2023-03-20T00:51:04.576Z,26.20
2023-03-20T00:53:38.484Z,26.40
2023-03-20T00:56:09.742Z,28.30
2023-03-20T01:01:27.072Z,26.67
2023-03-20T01:03:56.993Z,27.00
2023-03-20T01:09:15.449Z,28.57
2023-03-20T01:12:04.612Z,27.37
2023-03-20T01:14:55.627Z,27.20
2023-03-20T01:17:26.460Z,26.47
2023-03-20T01:19:57.713Z,27.83
2023-03-20T01:22:27.640Z,29.80
2023-03-20T01:25:18.118Z,27.73
2023-03-20T01:27:51.635Z,28.07
2023-03-20T01:30:57.477Z,28.00
2023-03-20T01:33:28.424Z,27.43
2023-03-20T01:36:00.001Z,29.00
2023-03-20T01:38:30.906Z,27.37
2023-03-20T01:41:08.762Z,28.30
2023-03-20T01:43:41.169Z,27.33
2023-03-20T01:46:39.154Z,27.77
2023-03-20T01:49:54.120Z,26.30
2023-03-20T01:52:24.239Z,28.07
2023-03-20T01:54:54.783Z,27.37
2023-03-20T01:57:28.167Z,27.20
2023-03-20T02:00:05.361Z,26.73
2023-03-20T02:02:48.474Z,26.63
2023-03-20T02:05:48.185Z,25.10
2023-03-20T02:08:43.904Z,27.23
2023-03-20T02:11:15.160Z,26.77
2023-03-20T02:14:05.651Z,25.33
2023-03-20T02:16:44.454Z,26.73
2023-03-20T02:19:47.863Z,25.33
2023-03-20T02:22:54.572Z,24.97
2023-03-20T02:25:57.122Z,24.60
2023-03-20T02:29:34.417Z,25.13
2023-03-20T02:32:35.491Z,25.87
2023-03-20T02:35:46.387Z,24.93
2023-03-20T02:41:49.862Z,25.13
2023-03-20T02:44:26.939Z,24.60
2023-03-20T02:47:06.796Z,25.70
2023-03-20T02:49:51.870Z,24.67
2023-03-20T02:52:28.118Z,24.93
2023-03-20T02:55:13.091Z,24.67
2023-03-20T02:57:50.329Z,23.73
2023-03-20T03:03:22.777Z,25.10
2023-03-20T03:05:56.573Z,24.17
2023-03-20T03:08:31.952Z,25.10
2023-03-20T03:11:41.347Z,24.57
2023-03-20T03:14:21.148Z,24.57
2023-03-20T03:16:53.988Z,24.27
2023-03-20T03:19:28.725Z,25.33
2023-03-20T03:21:59.017Z,23.67
2023-03-20T03:24:48.503Z,24.13
2023-03-20T03:27:24.572Z,23.93
2023-03-20T03:29:58.366Z,23.37
2023-03-20T03:32:34.241Z,22.63
2023-03-20T03:35:07.410Z,22.50
2023-03-20T03:38:00.992Z,23.10
2023-03-20T03:40:37.552Z,25.43
2023-03-20T03:43:31.122Z,22.47
2023-03-20T03:46:07.656Z,23.30
2023-03-20T03:48:59.644Z,22.30
2023-03-20T03:52:09.769Z,22.30
2023-03-20T03:55:02.839Z,23.47
2023-03-20T03:57:39.874Z,22.77
2023-03-20T04:00:18.028Z,22.90
2023-03-20T04:02:52.754Z,23.70
2023-03-20T04:05:23.781Z,24.00
2023-03-20T04:08:12.132Z,23.27
2023-03-20T04:10:44.203Z,23.87
2023-03-20T04:13:14.134Z,22.90
2023-03-20T04:15:46.285Z,23.67
2023-03-20T04:18:18.769Z,23.63
2023-03-20T04:21:09.843Z,23.57
2023-03-20T04:23:40.297Z,22.53
2023-03-20T04:26:10.743Z,22.93
2023-03-20T04:28:58.676Z,24.30
2023-03-20T04:31:53.508Z,23.37
2023-03-20T04:41:22.862Z,24.47
2023-03-20T04:43:56.926Z,23.83
2023-03-20T04:46:44.654Z,23.00
2023-03-20T04:49:21.019Z,23.77
2023-03-20T04:51:51.575Z,22.73
2023-03-20T04:54:32.516Z,24.63
2023-03-20T04:57:02.311Z,25.30
2023-03-20T04:59:32.442Z,22.77
2023-03-20T05:02:02.470Z,23.07
2023-03-20T05:04:35.279Z,23.90
2023-03-20T05:07:05.656Z,23.57
2023-03-20T05:09:43.580Z,22.43
2023-03-20T05:15:13.296Z,21.80
2023-03-20T05:18:13.924Z,23.40
2023-03-20T05:20:56.364Z,25.67
2023-03-20T05:23:49.289Z,26.83
2023-03-20T05:26:38.560Z,45.87
2023-03-20T05:29:27.348Z,51.80
2023-03-20T05:32:17.288Z,55.10
2023-03-20T05:35:07.995Z,55.13
2023-03-20T05:37:53.278Z,53.03
2023-03-20T05:44:00.708Z,44.23
2023-03-20T05:46:57.039Z,41.97
2023-03-20T05:49:57.760Z,43.43
2023-03-20T05:53:01.571Z,41.20
2023-03-20T05:56:00.673Z,32.97
2023-03-20T05:58:43.784Z,33.00
2023-03-20T06:01:37.460Z,31.57
2023-03-20T06:04:26.246Z,31.30
2023-03-20T06:07:22.558Z,28.87
2023-03-20T06:10:03.724Z,29.73
2023-03-20T06:12:34.561Z,28.77
2023-03-20T06:15:05.191Z,26.63
2023-03-20T06:17:41.052Z,28.77
2023-03-20T06:20:13.431Z,35.60
2023-03-20T06:23:03.724Z,30.43
2023-03-20T06:25:35.986Z,27.23
2023-03-20T06:28:06.847Z,27.17
2023-03-20T06:30:36.923Z,26.80
2023-03-20T06:33:09.248Z,26.03
2023-03-20T06:35:57.215Z,26.50
2023-03-20T06:38:28.579Z,26.63
2023-03-20T06:41:00.651Z,27.63
2023-03-20T06:43:31.598Z,27.73
2023-03-20T06:46:02.738Z,27.33
2023-03-20T06:48:34.907Z,30.23
2023-03-20T06:51:09.660Z,26.10
2023-03-20T06:53:50.910Z,26.00
2023-03-20T06:56:26.263Z,29.93
2023-03-20T06:58:59.330Z,30.13
2023-03-20T07:01:29.397Z,29.40
2023-03-20T07:04:00.195Z,31.20
2023-03-20T07:06:39.122Z,33.40
2023-03-20T07:09:46.516Z,31.97
2023-03-20T07:12:38.446Z,33.20
2023-03-20T07:15:10.126Z,35.97
2023-03-20T07:17:41.054Z,35.30
2023-03-20T07:20:31.336Z,36.17
2023-03-20T07:23:01.852Z,33.17
2023-03-20T07:25:42.233Z,34.83
2023-03-20T07:28:33.011Z,35.17
2023-03-20T07:31:21.980Z,33.60
2023-03-20T07:33:56.924Z,31.80
2023-03-20T07:36:27.758Z,33.73
2023-03-20T07:38:57.860Z,32.13
2023-03-20T07:41:29.518Z,31.90
2023-03-20T07:44:08.649Z,31.43
2023-03-20T07:46:49.408Z,34.23
2023-03-20T07:49:20.179Z,32.60
2023-03-20T07:51:53.861Z,32.00
2023-03-20T07:54:25.736Z,26.97
2023-03-20T07:57:06.072Z,27.30
2023-03-20T07:59:37.828Z,28.40
2023-03-20T08:02:26.490Z,27.73
2023-03-20T08:04:57.416Z,25.40
2023-03-20T08:07:27.733Z,25.67
2023-03-20T08:10:16.198Z,25.87
2023-03-20T08:12:46.514Z,26.33
2023-03-20T08:15:18.165Z,29.63
2023-03-20T08:17:48.485Z,31.47
2023-03-20T08:20:20.473Z,26.87
2023-03-20T08:23:12.083Z,27.70
2023-03-20T08:26:00.523Z,25.90
2023-03-20T08:29:07.725Z,25.27
2023-03-20T08:31:39.732Z,25.73
2023-03-20T08:34:10.625Z,25.93
2023-03-20T08:36:41.556Z,24.97
2023-03-20T08:39:11.894Z,27.60
2023-03-20T08:41:44.255Z,25.67
2023-03-20T08:44:14.373Z,24.93
2023-03-20T08:46:47.039Z,22.57
2023-03-20T08:49:16.956Z,23.17
2023-03-20T08:51:53.847Z,23.37
2023-03-20T08:54:24.573Z,22.63
2023-03-20T08:56:58.169Z,23.57
2023-03-20T08:59:48.998Z,21.47
2023-03-20T09:07:03.693Z,21.10
2023-03-20T09:09:53.486Z,20.03
2023-03-20T09:13:09.576Z,18.77
2023-03-20T09:16:30.602Z,19.57
2023-03-20T09:19:25.780Z,17.90
2023-03-20T09:21:55.999Z,21.03
2023-03-20T09:24:26.092Z,17.80
2023-03-20T09:26:57.787Z,16.13
2023-03-20T09:29:27.676Z,16.97
2023-03-20T09:31:57.548Z,18.40
2023-03-20T09:34:27.721Z,18.33
2023-03-20T09:36:57.849Z,19.13
2023-03-20T09:39:28.373Z,20.13
2023-03-20T09:42:06.581Z,18.97
2023-03-20T09:44:48.063Z,19.30
2023-03-20T09:47:24.609Z,21.13
2023-03-20T09:50:07.051Z,20.10
2023-03-20T09:52:40.618Z,20.80
2023-03-20T09:55:16.630Z,21.87
2023-03-20T09:57:53.690Z,17.17
2023-03-20T10:00:26.862Z,15.93
2023-03-20T10:03:01.508Z,15.67
2023-03-20T10:05:36.918Z,19.93
2023-03-20T10:08:15.690Z,14.87
2023-03-20T10:10:53.539Z,16.07
2023-03-20T10:13:49.567Z,14.60
2023-03-20T10:16:27.719Z,19.00
2023-03-20T10:19:05.166Z,18.73
2023-03-20T10:21:43.992Z,16.40
2023-03-20T10:24:20.147Z,16.67
2023-03-20T10:26:54.366Z,14.33
2023-03-20T10:29:40.153Z,18.27
2023-03-20T10:32:19.183Z,17.90
2023-03-20T10:35:00.589Z,16.63
2023-03-20T10:37:41.748Z,15.57
2023-03-20T10:40:28.460Z,14.38
2023-03-20T10:43:03.286Z,14.37
2023-03-20T10:45:43.857Z,15.23
2023-03-20T10:48:23.286Z,14.70
2023-03-20T10:50:56.746Z,16.67
2023-03-20T10:53:32.823Z,15.73
2023-03-20T10:56:07.360Z,16.65
2023-03-20T10:58:41.507Z,17.38
2023-03-20T11:01:13.176Z,17.95
2023-03-20T11:03:44.122Z,18.25
2023-03-20T11:06:21.252Z,17.50
2023-03-20T11:08:54.853Z,17.67
2023-03-20T11:11:27.429Z,19.23
2023-03-20T11:13:59.093Z,17.45
2023-03-20T11:16:39.599Z,17.48
2023-03-20T11:19:12.744Z,19.27
2023-03-20T11:21:51.042Z,19.55
2023-03-20T11:24:37.877Z,16.30
2023-03-20T11:27:10.754Z,16.55
2023-03-20T11:29:44.428Z,18.85
2023-03-20T11:32:29.010Z,19.27
2023-03-20T11:35:00.046Z,18.20
2023-03-20T11:37:32.018Z,17.60
2023-03-20T11:40:09.402Z,18.17
2023-03-20T11:42:39.420Z,21.48
2023-03-20T11:45:18.437Z,17.45
2023-03-20T11:47:54.813Z,18.23
2023-03-20T11:50:32.298Z,17.30
2023-03-20T11:53:04.169Z,17.95
2023-03-20T11:55:36.027Z,17.77
2023-03-20T11:58:10.745Z,17.92
2023-03-20T12:00:43.342Z,17.30
2023-03-20T12:03:45.554Z,18.00
2023-03-20T12:06:21.054Z,18.33
2023-03-20T12:08:58.636Z,19.73
2023-03-20T12:11:45.546Z,18.52
2023-03-20T12:14:23.075Z,19.95
2023-03-20T12:16:58.615Z,19.52
2023-03-20T12:19:34.351Z,28.70
2023-03-20T12:22:09.897Z,19.52
2023-03-20T12:24:45.632Z,21.45
2023-03-20T12:27:30.098Z,19.50
2023-03-20T12:30:07.896Z,19.95
2023-03-20T12:32:43.705Z,18.52
2023-03-20T12:35:22.686Z,18.80
2023-03-20T12:37:52.692Z,17.17
2023-03-20T12:40:29.065Z,18.23
2023-03-20T12:43:07.115Z,17.13
2023-03-20T12:45:44.797Z,16.77
2023-03-20T12:48:50.919Z,18.23
2023-03-20T12:51:32.427Z,17.98
2023-03-20T12:54:15.776Z,17.35
2023-03-20T12:56:59.165Z,18.65
2023-03-20T12:59:37.181Z,17.90
2023-03-20T13:02:22.085Z,18.15
2023-03-20T13:05:16.534Z,18.15
2023-03-20T13:08:04.765Z,19.15
2023-03-20T13:10:41.238Z,19.20
2023-03-20T13:13:23.775Z,20.50
2023-03-20T13:16:06.091Z,19.60
2023-03-20T13:18:50.723Z,20.40
2023-03-20T13:21:31.379Z,19.20
2023-03-20T13:24:17.178Z,20.20
2023-03-20T13:26:58.440Z,19.58
2023-03-20T13:29:36.227Z,21.65
2023-03-20T13:32:16.920Z,18.77
2023-03-20T13:35:24.098Z,22.33
2023-03-20T13:37:59.034Z,19.90
2023-03-20T13:40:32.534Z,18.80
2023-03-20T13:43:11.036Z,21.10
2023-03-20T13:45:42.897Z,18.58
2023-03-20T13:48:26.441Z,19.27
2023-03-20T13:51:06.690Z,19.60
2023-03-20T13:53:46.149Z,18.35
2023-03-20T13:56:28.229Z,17.88
2023-03-20T13:59:33.053Z,19.92
2023-03-20T14:02:16.809Z,18.83
2023-03-20T14:04:48.153Z,18.90
2023-03-20T14:07:34.136Z,21.02
2023-03-20T14:10:39.136Z,18.63
2023-03-20T14:13:17.088Z,18.10
2023-03-20T14:15:58.253Z,18.38
2023-03-20T14:18:28.996Z,18.80
2023-03-20T14:21:02.714Z,17.80
2023-03-20T14:23:38.857Z,18.73
2023-03-20T14:26:12.425Z,20.08
2023-03-20T14:28:57.006Z,18.88
2023-03-20T14:31:31.528Z,18.67
2023-03-20T14:34:18.137Z,19.25
2023-03-20T14:36:54.498Z,20.05
2023-03-20T14:39:44.273Z,19.85
2023-03-20T14:42:26.713Z,19.55
2023-03-20T14:45:43.183Z,22.08
2023-03-20T14:48:30.417Z,19.60
2023-03-20T14:51:23.980Z,19.73
2023-03-20T14:53:59.733Z,20.55
2023-03-20T14:56:35.346Z,20.38
2023-03-20T14:59:07.746Z,20.33
2023-03-20T15:01:48.790Z,19.35
2023-03-20T15:04:38.617Z,21.48
2023-03-20T15:07:16.003Z,22.00
2023-03-20T15:09:47.964Z,20.63
2023-03-20T15:12:27.204Z,21.65
2023-03-20T15:15:04.389Z,21.13
2023-03-20T15:17:42.279Z,20.25
2023-03-20T15:20:18.435Z,20.33
2023-03-20T15:22:52.691Z,24.80
2023-03-20T15:25:26.149Z,21.08
2023-03-20T15:27:58.122Z,21.88
2023-03-20T15:30:30.487Z,21.90
2023-03-20T15:33:05.797Z,20.33
2023-03-20T15:35:39.224Z,22.23
2023-03-20T15:38:10.581Z,21.98
2023-03-20T15:40:50.516Z,20.73
2023-03-20T15:43:25.161Z,21.05
2023-03-20T15:46:16.757Z,22.38
2023-03-20T15:48:52.210Z,20.92
2023-03-20T15:51:29.711Z,20.48
2023-03-20T15:53:59.945Z,20.83
2023-03-20T15:56:34.544Z,22.08
2023-03-20T15:59:04.585Z,20.80
2023-03-20T16:01:35.968Z,20.17
2023-03-20T16:04:08.189Z,21.98
2023-03-20T16:06:46.732Z,22.00
2023-03-20T16:09:18.364Z,21.20
2023-03-20T16:11:54.014Z,20.63
2023-03-20T16:14:26.394Z,20.23
2023-03-20T16:16:58.263Z,20.33
2023-03-20T16:19:32.064Z,20.40
2023-03-20T16:22:05.055Z,20.60
2023-03-20T16:24:40.577Z,23.25
2023-03-20T16:27:18.398Z,23.63
2023-03-20T16:29:53.434Z,20.10
2023-03-20T16:32:34.762Z,18.92
2023-03-20T16:35:10.266Z,21.73
2023-03-20T16:37:45.172Z,22.92
2023-03-20T16:40:19.826Z,20.67
2023-03-20T16:42:50.835Z,22.73
2023-03-20T16:45:33.041Z,21.13
2023-03-20T16:48:32.159Z,21.65
2023-03-20T16:51:11.164Z,21.52
2023-03-20T16:53:46.718Z,21.52
2023-03-20T16:56:24.814Z,22.55
2023-03-20T16:58:56.912Z,22.15
2023-03-20T17:01:30.421Z,24.10
2023-03-20T17:04:13.377Z,22.95
2023-03-20T17:06:51.100Z,22.80
2023-03-20T17:09:25.212Z,26.25
2023-03-20T17:12:04.150Z,28.67
2023-03-20T17:14:34.658Z,27.63
2023-03-20T17:17:04.768Z,29.65
2023-03-20T17:19:38.690Z,28.67
2023-03-20T17:22:15.974Z,31.02
2023-03-20T17:24:45.687Z,22.27
2023-03-20T17:27:18.656Z,24.07
2023-03-20T17:29:50.740Z,22.07
2023-03-20T17:32:24.366Z,24.33
2023-03-20T17:34:54.561Z,21.87
2023-03-20T17:37:29.890Z,21.33
2023-03-20T17:40:01.779Z,19.23
2023-03-20T17:42:33.117Z,20.67
2023-03-20T17:45:05.074Z,19.83
2023-03-20T17:47:34.887Z,22.03
2023-03-20T17:50:04.798Z,20.27
2023-03-20T17:52:36.241Z,37.37
2023-03-20T17:55:06.575Z,31.07
2023-03-20T17:57:38.635Z,25.63
2023-03-20T18:00:12.436Z,23.20
2023-03-20T18:02:42.253Z,26.17
2023-03-20T18:05:12.938Z,21.37
2023-03-20T18:07:44.837Z,19.70
2023-03-20T18:10:22.652Z,22.23
2023-03-20T18:12:53.053Z,22.90
2023-03-20T18:15:23.099Z,25.00
2023-03-20T18:17:53.314Z,22.47
2023-03-20T18:20:27.844Z,22.27
2023-03-20T18:22:59.797Z,19.93
2023-03-20T18:25:30.640Z,27.77
2023-03-20T18:28:02.912Z,25.73
2023-03-20T18:30:35.370Z,27.00
2023-03-20T18:33:08.387Z,30.33
2023-03-20T18:35:39.249Z,33.80
2023-03-20T18:38:14.342Z,38.03
2023-03-20T18:40:51.729Z,29.80
2023-03-20T18:43:21.748Z,29.93
2023-03-20T18:45:52.380Z,27.43
2023-03-20T18:48:22.396Z,32.73
2023-03-20T18:50:52.917Z,30.50
2023-03-20T18:53:26.406Z,36.17
2023-03-20T18:55:56.638Z,33.13
2023-03-20T18:58:27.978Z,37.07
2023-03-20T19:01:00.045Z,54.77
2023-03-20T19:03:30.426Z,91.03
2023-03-20T19:06:00.723Z,109.50
2023-03-20T19:08:58.752Z,97.90
2023-03-20T19:11:32.162Z,76.80
2023-03-20T19:14:03.004Z,72.63
2023-03-20T19:16:38.589Z,53.30
2023-03-20T19:19:10.523Z,53.80
2023-03-20T19:21:40.821Z,65.43
2023-03-20T19:24:14.238Z,59.70
2023-03-20T19:26:47.024Z,50.33
2023-03-20T19:29:18.657Z,54.80
2023-03-20T19:31:48.508Z,50.00
2023-03-20T19:34:51.958Z,44.90
2023-03-20T19:37:08.367Z,44.33
2023-03-20T19:39:40.543Z,39.07
2023-03-20T19:42:38.869Z,36.33
2023-03-20T19:45:01.071Z,37.00
2023-03-20T19:47:31.122Z,35.70
2023-03-20T19:50:00.988Z,35.80
2023-03-20T19:52:34.697Z,35.30
2023-03-20T19:55:06.857Z,37.47
2023-03-20T19:57:36.764Z,39.13
2023-03-20T20:00:55.024Z,34.17
2023-03-20T20:02:59.379Z,32.83
2023-03-20T20:05:33.041Z,33.20
2023-03-20T20:08:28.012Z,36.97
2023-03-20T20:11:03.172Z,33.77
2023-03-20T20:13:47.083Z,35.00
2023-03-20T20:16:26.597Z,36.47
2023-03-20T20:18:57.072Z,35.97
2023-03-20T20:24:18.109Z,37.77
2023-03-20T20:27:00.032Z,40.50
2023-03-20T20:29:37.292Z,40.53
2023-03-20T20:32:07.743Z,39.80
2023-03-20T20:35:30.729Z,39.57
2023-03-20T20:38:10.337Z,43.33
2023-03-20T20:40:22.103Z,40.60
2023-03-20T20:42:56.304Z,38.90
2023-03-20T20:45:30.335Z,40.70
2023-03-20T20:48:02.092Z,42.27
2023-03-20T20:50:33.847Z,46.67
2023-03-20T20:53:08.578Z,44.43
2023-03-20T20:55:38.893Z,41.67
2023-03-20T20:58:10.871Z,40.20
2023-03-20T21:00:51.718Z,42.10
2023-03-20T21:03:23.583Z,43.00
2023-03-20T21:05:53.595Z,42.83
2023-03-20T21:08:26.496Z,42.50
2023-03-20T21:10:56.512Z,43.30
2023-03-20T21:13:28.065Z,41.17
2023-03-20T21:16:03.407Z,40.93
2023-03-20T21:18:35.502Z,47.20
2023-03-20T21:21:09.160Z,43.80
2023-03-20T21:23:40.308Z,41.13
2023-03-20T21:26:12.171Z,40.00
2023-03-20T21:28:43.716Z,41.53
2023-03-20T21:31:26.535Z,38.80
2023-03-20T21:33:58.308Z,37.33
2023-03-20T21:36:28.385Z,37.20
2023-03-20T21:39:13.679Z,40.00
2023-03-20T21:41:44.280Z,39.17
2023-03-20T21:44:24.609Z,40.77
2023-03-20T21:48:03.874Z,40.23
2023-03-20T21:50:45.969Z,40.03
2023-03-20T21:56:31.477Z,41.80
2023-03-20T22:01:53.248Z,41.07
2023-03-20T22:10:55.823Z,41.40
2023-03-20T22:16:16.546Z,48.00
2023-03-20T22:19:18.017Z,44.07
2023-03-20T22:21:55.952Z,43.33
2023-03-20T22:24:45.194Z,44.63
2023-03-20T22:30:41.964Z,47.07
2023-03-20T22:33:29.821Z,47.07
2023-03-20T22:36:17.910Z,49.57
2023-03-20T22:38:59.753Z,49.07
2023-03-20T22:42:06.713Z,48.20
2023-03-20T22:44:47.770Z,53.47
2023-03-20T22:46:47.944Z,54.30
2023-03-20T22:49:18.288Z,54.90
2023-03-20T22:52:11.219Z,53.03
2023-03-20T22:54:42.458Z,51.30
2023-03-20T22:57:12.256Z,51.73
2023-03-20T22:59:42.286Z,52.23
2023-03-20T23:02:12.204Z,50.77
2023-03-20T23:04:42.612Z,50.40
2023-03-20T23:07:14.183Z,50.90
2023-03-20T23:09:44.560Z,50.13
2023-03-20T23:12:15.227Z,51.30
2023-03-20T23:14:46.331Z,51.90
2023-03-20T23:17:17.017Z,50.73
2023-03-20T23:19:52.164Z,51.70
2023-03-20T23:22:28.007Z,53.07
2023-03-20T23:25:02.859Z,53.50
2023-03-20T23:27:39.812Z,57.40
2023-03-20T23:30:11.259Z,57.77
2023-03-20T23:32:43.118Z,57.37
2023-03-20T23:35:13.679Z,59.53
2023-03-20T23:37:46.636Z,59.30
2023-03-20T23:40:16.852Z,59.07
2023-03-20T23:42:47.074Z,58.53
2023-03-20T23:45:20.916Z,59.67
2023-03-20T23:47:52.084Z,62.47
2023-03-20T23:50:31.776Z,63.93
2023-03-20T23:53:17.501Z,62.10
2023-03-20T23:55:53.919Z,61.97
2023-03-20T23:58:28.451Z,63.13
